Kuopio, Finland

4:36 PM EET on December 28, 2014 (GMT +0200)
Kuopio | Change Station
CLOSE
Current Station
Airport
Location: Kuopio,
Elevation: 335 ft
Nearby Weather Stations

Elev 335 ft 63.01 °N, 27.80 °E | Updated 16 minutes ago

Snow
Snow
0 °F
Feels Like -10 °F
N
5
Wind Variable Wind from WNW

Today
High -- | Low -- °F
--% Chance of Precip.
Yesterday
High -- | Low -- °F
Precip. -- in
9:46 AM 2:34 PM
Waxing Crescent, 48% visible
Pressure 30.15 in
Visibility 0.2 miles
Clouds Mostly Cloudy 600 ft
Windchill -10 °F
Dew Point -4 °F
Humidity 85%
Rainfall 0.00 in
Snow Depth Not available.
UV 0 out of 12
Pollen Not available.
Air Quality Not available.
Flu Activity Not available.
METAR EFKU 281420Z AUTO 29004KT 0400 SN BKN006 M18/M20 Q1021

More Conditions Fewer Conditions

Pressure 30.15 in
Visibility 0.2 miles
Clouds Mostly Cloudy 600 ft
Windchill -10 °F
Dew Point -4 °F
Humidity 85%
Rainfall 0.00 in
Snow Depth Not available.
UV 0 out of 12
Pollen Not available.
Air Quality Not available.
Flu Activity Not available.
METAR EFKU 281420Z AUTO 29004KT 0400 SN BKN006 M18/M20 Q1021

More Conditions Fewer Conditions

10-Day Weather Forecast

Almanac

Astronomy

Dec. 28, 2014 Rise Set
Actual Time
Civil Twilight
Nautical Twilight
Astronomical Twilight
Moon
Length of Visible Light
Length of Day
Tomorrow will be .
, % of the Moon is Illuminated

Today's Extremes

Country Highs Country Lows

Community

WunderPhotos

Upload Photos

1,781,273 photos uploaded!

WunderBlogs® & News

Nearby

Air Quality

  Air Quality AQ Index Pollutant
Not available.

Snow Depth

Station Depth Elevation

Earthquake Activity

City Distance Mag. Time & Date
Minimum magnitude displayed is 2.5.

Coastal Water Temperatures

Place Temperature

Nearby Weather Stations